sensor_id;sensor_type;location;lat;lon;timestamp;pressure;altitude;pressure_sealevel;temperature;humidity
27980;BME280;15315;50.836;4.430;2023-05-03T00:09:22;102266.69;;;13.17;50.98
27980;BME280;15315;50.836;4.430;2023-05-03T00:19:23;102252.97;;;12.89;51.08
27980;BME280;15315;50.836;4.430;2023-05-03T00:29:29;102251.25;;;13.04;51.36
27980;BME280;15315;50.836;4.430;2023-05-03T00:39:29;102258.59;;;13.02;51.10
27980;BME280;15315;50.836;4.430;2023-05-03T00:49:32;102247.03;;;12.82;52.06
27980;BME280;15315;50.836;4.430;2023-05-03T00:59:33;102243.69;;;12.45;52.90
27980;BME280;15315;50.836;4.430;2023-05-03T01:10:00;102240.44;;;12.21;53.80
27980;BME280;15315;50.836;4.430;2023-05-03T01:20:09;102243.31;;;12.18;54.10
27980;BME280;15315;50.836;4.430;2023-05-03T01:30:11;102249.44;;;12.21;53.66
27980;BME280;15315;50.836;4.430;2023-05-03T01:40:13;102241.72;;;11.80;55.05
27980;BME280;15315;50.836;4.430;2023-05-03T01:50:16;102225.44;;;11.98;54.61
27980;BME280;15315;50.836;4.430;2023-05-03T02:00:16;102224.84;;;11.03;57.72
27980;BME280;15315;50.836;4.430;2023-05-03T02:10:17;102209.97;;;11.49;56.30
27980;BME280;15315;50.836;4.430;2023-05-03T02:20:17;102213.91;;;11.60;55.97
27980;BME280;15315;50.836;4.430;2023-05-03T02:30:18;102204.28;;;11.55;56.18
27980;BME280;15315;50.836;4.430;2023-05-03T02:40:18;102230.22;;;11.40;56.43
27980;BME280;15315;50.836;4.430;2023-05-03T02:50:19;102222.16;;;11.39;56.05
27980;BME280;15315;50.836;4.430;2023-05-03T03:00:19;102221.88;;;11.81;54.88
27980;BME280;15315;50.836;4.430;2023-05-03T03:10:20;102188.84;;;11.21;56.79
27980;BME280;15315;50.836;4.430;2023-05-03T03:20:21;102189.91;;;11.54;55.68
27980;BME280;15315;50.836;4.430;2023-05-03T03:30:21;102197.88;;;11.39;56.05
27980;BME280;15315;50.836;4.430;2023-05-03T03:40:21;102206.06;;;11.19;56.78
27980;BME280;15315;50.836;4.430;2023-05-03T03:50:23;102217.19;;;10.75;58.00
27980;BME280;15315;50.836;4.430;2023-05-03T04:00:24;102229.63;;;10.59;58.95
27980;BME280;15315;50.836;4.430;2023-05-03T04:10:25;102242.53;;;10.53;59.24
27980;BME280;15315;50.836;4.430;2023-05-03T04:20:25;102242.25;;;10.18;60.84
27980;BME280;15315;50.836;4.430;2023-05-03T04:30:26;102251.91;;;10.24;60.61
27980;BME280;15315;50.836;4.430;2023-05-03T04:40:26;102248.97;;;9.68;63.15
27980;BME280;15315;50.836;4.430;2023-05-03T04:50:26;102263.78;;;10.20;61.91
27980;BME280;15315;50.836;4.430;2023-05-03T05:00:27;102253.84;;;10.00;62.79
27980;BME280;15315;50.836;4.430;2023-05-03T05:10:28;102255.09;;;10.33;62.10
27980;BME280;15315;50.836;4.430;2023-05-03T05:20:28;102257.41;;;10.21;62.86
27980;BME280;15315;50.836;4.430;2023-05-03T05:30:28;102261.69;;;10.46;62.33
27980;BME280;15315;50.836;4.430;2023-05-03T05:40:29;102272.59;;;10.82;61.80
27980;BME280;15315;50.836;4.430;2023-05-03T05:50:29;102287.41;;;10.92;61.68
27980;BME280;15315;50.836;4.430;2023-05-03T06:00:30;102275.66;;;10.75;62.11
27980;BME280;15315;50.836;4.430;2023-05-03T06:10:31;102278.53;;;10.90;61.72
27980;BME280;15315;50.836;4.430;2023-05-03T06:20:31;102266.44;;;11.18;61.20
27980;BME280;15315;50.836;4.430;2023-05-03T06:30:32;102264.19;;;11.44;60.71
27980;BME280;15315;50.836;4.430;2023-05-03T06:40:33;102251.38;;;11.49;60.93
27980;BME280;15315;50.836;4.430;2023-05-03T06:50:34;102241.94;;;11.39;61.09
27980;BME280;15315;50.836;4.430;2023-05-03T07:00:35;102232.97;;;11.39;60.71
27980;BME280;15315;50.836;4.430;2023-05-03T07:10:37;102227.25;;;11.98;59.73
27980;BME280;15315;50.836;4.430;2023-05-03T07:20:37;102222.75;;;11.98;59.49
27980;BME280;15315;50.836;4.430;2023-05-03T07:30:38;102213.72;;;12.32;59.37
27980;BME280;15315;50.836;4.430;2023-05-03T07:40:39;102204.25;;;13.05;58.38
27980;BME280;15315;50.836;4.430;2023-05-03T07:50:41;102212.59;;;12.69;58.03
27980;BME280;15315;50.836;4.430;2023-05-03T08:00:42;102201.53;;;13.36;57.69
27980;BME280;15315;50.836;4.430;2023-05-03T08:10:43;102195.91;;;14.42;60.12
27980;BME280;15315;50.836;4.430;2023-05-03T08:20:43;102198.97;;;14.80;56.98
27980;BME280;15315;50.836;4.430;2023-05-03T08:30:44;102186.09;;;15.10;54.94
27980;BME280;15315;50.836;4.430;2023-05-03T08:40:47;102186.84;;;14.86;52.67
27980;BME280;15315;50.836;4.430;2023-05-03T08:50:50;102200.25;;;15.69;51.33
27980;BME280;15315;50.836;4.430;2023-05-03T09:00:50;102192.53;;;15.22;50.36
27980;BME280;15315;50.836;4.430;2023-05-03T09:10:51;102194.75;;;15.29;50.24
27980;BME280;15315;50.836;4.430;2023-05-03T09:20:51;102180.13;;;16.48;48.46
27980;BME280;15315;50.836;4.430;2023-05-03T09:31:04;102176.63;;;16.59;46.95
27980;BME280;15315;50.836;4.430;2023-05-03T09:41:05;102172.59;;;16.64;47.20
27980;BME280;15315;50.836;4.430;2023-05-03T09:51:07;102179.34;;;16.72;45.67
27980;BME280;15315;50.836;4.430;2023-05-03T10:01:09;102179.09;;;15.47;47.24
27980;BME280;15315;50.836;4.430;2023-05-03T10:11:14;102149.19;;;15.99;47.33
27980;BME280;15315;50.836;4.430;2023-05-03T10:21:24;102145.66;;;15.59;46.91
27980;BME280;15315;50.836;4.430;2023-05-03T10:31:44;102141.81;;;16.39;46.21
27980;BME280;15315;50.836;4.430;2023-05-03T10:42:00;102134.63;;;16.87;44.97
27980;BME280;15315;50.836;4.430;2023-05-03T10:52:02;102118.38;;;16.11;46.35
27980;BME280;15315;50.836;4.430;2023-05-03T11:02:03;102122.72;;;16.64;44.98
27980;BME280;15315;50.836;4.430;2023-05-03T11:12:05;102105.88;;;17.54;43.29
27980;BME280;15315;50.836;4.430;2023-05-03T11:22:06;102107.75;;;16.33;44.41
27980;BME280;15315;50.836;4.430;2023-05-03T11:32:07;102095.78;;;16.59;44.85
27980;BME280;15315;50.836;4.430;2023-05-03T11:42:09;102090.78;;;17.61;43.91
27980;BME280;15315;50.836;4.430;2023-05-03T11:52:09;102072.66;;;17.49;43.43
27980;BME280;15315;50.836;4.430;2023-05-03T12:02:14;102060.78;;;17.61;42.76
27980;BME280;15315;50.836;4.430;2023-05-03T12:12:19;102031.13;;;17.56;41.33
27980;BME280;15315;50.836;4.430;2023-05-03T12:22:19;102015.06;;;17.29;41.71
27980;BME280;15315;50.836;4.430;2023-05-03T12:32:20;102003.28;;;18.08;40.78
27980;BME280;15315;50.836;4.430;2023-05-03T12:42:20;101989.13;;;18.14;41.12
27980;BME280;15315;50.836;4.430;2023-05-03T12:52:21;101968.84;;;18.50;40.61
27980;BME280;15315;50.836;4.430;2023-05-03T13:02:21;101954.38;;;19.02;40.61
27980;BME280;15315;50.836;4.430;2023-05-03T13:12:22;101941.50;;;18.61;41.88
27980;BME280;15315;50.836;4.430;2023-05-03T13:22:23;101944.34;;;17.83;41.82
27980;BME280;15315;50.836;4.430;2023-05-03T13:32:23;101928.47;;;17.55;41.01
27980;BME280;15315;50.836;4.430;2023-05-03T13:42:24;101912.59;;;18.47;40.86
27980;BME280;15315;50.836;4.430;2023-05-03T13:52:25;101907.91;;;17.96;41.16
27980;BME280;15315;50.836;4.430;2023-05-03T14:02:25;101883.91;;;18.10;41.73
27980;BME280;15315;50.836;4.430;2023-05-03T14:12:26;101882.97;;;18.75;40.82
27980;BME280;15315;50.836;4.430;2023-05-03T14:22:26;101867.03;;;18.80;40.22
27980;BME280;15315;50.836;4.430;2023-05-03T14:32:27;101869.78;;;18.48;39.27
27980;BME280;15315;50.836;4.430;2023-05-03T14:42:29;101839.84;;;18.78;39.90
27980;BME280;15315;50.836;4.430;2023-05-03T14:52:29;101827.84;;;18.70;39.35
27980;BME280;15315;50.836;4.430;2023-05-03T15:02:30;101816.44;;;19.06;39.80
27980;BME280;15315;50.836;4.430;2023-05-03T15:12:31;101801.34;;;19.11;39.64
27980;BME280;15315;50.836;4.430;2023-05-03T15:22:31;101792.63;;;19.48;39.89
27980;BME280;15315;50.836;4.430;2023-05-03T15:32:32;101788.81;;;19.98;37.99
27980;BME280;15315;50.836;4.430;2023-05-03T15:42:32;101793.34;;;19.59;38.03
27980;BME280;15315;50.836;4.430;2023-05-03T15:52:34;101781.00;;;19.74;38.40
27980;BME280;15315;50.836;4.430;2023-05-03T16:02:34;101763.53;;;19.56;38.68
27980;BME280;15315;50.836;4.430;2023-05-03T16:12:34;101772.97;;;20.02;38.42
27980;BME280;15315;50.836;4.430;2023-05-03T16:22:36;101756.34;;;24.91;34.11
27980;BME280;15315;50.836;4.430;2023-05-03T16:32:37;101743.66;;;27.97;31.32
27980;BME280;15315;50.836;4.430;2023-05-03T16:42:39;101740.44;;;29.06;29.60
27980;BME280;15315;50.836;4.430;2023-05-03T16:52:41;101750.03;;;29.50;29.21
27980;BME280;15315;50.836;4.430;2023-05-03T17:02:42;101754.97;;;29.14;27.64
27980;BME280;15315;50.836;4.430;2023-05-03T17:12:45;101748.44;;;29.63;27.24
27980;BME280;15315;50.836;4.430;2023-05-03T17:22:46;101751.94;;;26.59;29.59
27980;BME280;15315;50.836;4.430;2023-05-03T17:32:47;101747.31;;;25.91;29.97
27980;BME280;15315;50.836;4.430;2023-05-03T17:42:47;101735.97;;;23.95;31.67
27980;BME280;15315;50.836;4.430;2023-05-03T17:52:47;101727.84;;;23.62;32.30
27980;BME280;15315;50.836;4.430;2023-05-03T18:02:48;101728.28;;;21.95;34.58
27980;BME280;15315;50.836;4.430;2023-05-03T18:12:48;101732.34;;;20.91;35.72
27980;BME280;15315;50.836;4.430;2023-05-03T18:22:49;101738.03;;;20.80;36.24
27980;BME280;15315;50.836;4.430;2023-05-03T18:32:49;101734.03;;;20.46;36.67
27980;BME280;15315;50.836;4.430;2023-05-03T18:42:49;101734.34;;;20.43;36.57
27980;BME280;15315;50.836;4.430;2023-05-03T18:52:50;101732.59;;;19.75;37.67
27980;BME280;15315;50.836;4.430;2023-05-03T19:02:50;101725.41;;;19.64;37.86
27980;BME280;15315;50.836;4.430;2023-05-03T19:12:51;101733.81;;;19.02;38.54
27980;BME280;15315;50.836;4.430;2023-05-03T19:22:52;101736.44;;;19.04;38.79
27980;BME280;15315;50.836;4.430;2023-05-03T19:32:52;101739.41;;;18.91;38.95
27980;BME280;15315;50.836;4.430;2023-05-03T19:42:53;101753.38;;;18.68;39.07
27980;BME280;15315;50.836;4.430;2023-05-03T19:52:53;101749.22;;;18.73;38.92
27980;BME280;15315;50.836;4.430;2023-05-03T20:02:53;101746.53;;;18.41;39.13
27980;BME280;15315;50.836;4.430;2023-05-03T20:12:54;101738.81;;;18.26;39.44
27980;BME280;15315;50.836;4.430;2023-05-03T20:22:54;101737.00;;;17.95;40.04
27980;BME280;15315;50.836;4.430;2023-05-03T20:32:55;101731.81;;;17.91;40.07
27980;BME280;15315;50.836;4.430;2023-05-03T20:42:55;101719.97;;;18.02;40.15
27980;BME280;15315;50.836;4.430;2023-05-03T20:52:55;101706.03;;;17.84;40.22
27980;BME280;15315;50.836;4.430;2023-05-03T21:02:56;101702.69;;;17.81;40.58
27980;BME280;15315;50.836;4.430;2023-05-03T21:12:56;101700.28;;;17.56;41.50
27980;BME280;15315;50.836;4.430;2023-05-03T21:22:57;101699.84;;;17.28;41.75
27980;BME280;15315;50.836;4.430;2023-05-03T21:32:57;101688.50;;;16.79;42.29
27980;BME280;15315;50.836;4.430;2023-05-03T21:42:57;101691.34;;;17.22;41.95
27980;BME280;15315;50.836;4.430;2023-05-03T21:52:58;101682.78;;;16.93;42.45
27980;BME280;15315;50.836;4.430;2023-05-03T22:02:58;101692.09;;;16.68;42.92
27980;BME280;15315;50.836;4.430;2023-05-03T22:12:58;101688.88;;;16.63;43.09
27980;BME280;15315;50.836;4.430;2023-05-03T22:22:59;101675.88;;;16.67;43.12
27980;BME280;15315;50.836;4.430;2023-05-03T22:32:59;101661.16;;;16.69;43.17
27980;BME280;15315;50.836;4.430;2023-05-03T22:42:59;101655.31;;;16.52;43.68
27980;BME280;15315;50.836;4.430;2023-05-03T22:53:00;101654.38;;;16.07;44.39
27980;BME280;15315;50.836;4.430;2023-05-03T23:03:00;101638.50;;;16.47;43.84
27980;BME280;15315;50.836;4.430;2023-05-03T23:13:01;101621.53;;;16.32;44.33
27980;BME280;15315;50.836;4.430;2023-05-03T23:23:02;101611.28;;;16.36;44.36
27980;BME280;15315;50.836;4.430;2023-05-03T23:33:02;101607.88;;;16.21;44.63
27980;BME280;15315;50.836;4.430;2023-05-03T23:43:02;101604.22;;;16.44;44.37
27980;BME280;15315;50.836;4.430;2023-05-03T23:53:03;101597.88;;;16.22;45.02
